Time;durP1;ratioP1;P1;durP2;ratioP2;P2;SDS_P1;SDS_P2;PMS_P1;PMS_P2;Temp;Humidity;BMP_temperature;BMP_pressure;BME280_temperature;BME280_humidity;BME280_pressure;Samples;Min_cycle;Max_cycle;Signal;HPM_P1;HPM_P2
2022/11/29 00:01:37;;;;;;;;;;;9.50;99.90;;;;;;8415530;28;20023;-74
2022/11/29 00:05:38;;;;;;;;;;;9.50;99.90;;;;;;8408530;28;20041;-74
2022/11/29 00:09:40;;;;;;;;;;;9.40;99.90;;;;;;8411711;28;19924;-74
2022/11/29 00:13:42;;;;;;;;;;;9.40;99.90;;;;;;8418740;28;19983;-74
2022/11/29 00:17:43;;;;;;;;;;;9.40;99.90;;;;;;8407005;28;19938;-74
2022/11/29 00:21:45;;;;;;;;;;;9.40;99.90;;;;;;8416145;28;19971;-74
2022/11/29 00:25:47;;;;;;;;;;;9.40;99.90;;;;;;8391800;28;19924;-74
2022/11/29 00:29:48;;;;;;;;;;;9.40;99.90;;;;;;8413007;28;19981;-74
2022/11/29 00:33:50;;;;;;;;;;;9.40;99.90;;;;;;8413615;28;19924;-74
2022/11/29 00:48:27;;;;;;;;;;;9.40;99.90;;;;;;8401377;28;19966;-74
2022/11/29 00:52:29;;;;;;;;;;;9.40;99.90;;;;;;8393400;28;19924;-74
2022/11/29 01:06:38;;;;;;;;;;;9.40;99.90;;;;;;8420697;28;20286;-74
2022/11/29 01:10:40;;;;;;;;;;;9.30;99.90;;;;;;8416971;28;19935;-74
2022/11/29 01:14:42;;;;;;;;;;;9.30;99.90;;;;;;8419720;28;19924;-74
2022/11/29 01:18:44;;;;;;;;;;;9.30;99.90;;;;;;8418788;28;19990;-74
2022/11/29 01:22:46;;;;;;;;;;;9.30;99.90;;;;;;8420527;28;19967;-74
2022/11/29 01:26:47;;;;;;;;;;;9.20;99.90;;;;;;8411676;28;20453;-74
2022/11/29 01:30:49;;;;;;;;;;;9.20;99.90;;;;;;8412247;28;19928;-74
2022/11/29 01:34:50;;;;;;;;;;;9.20;99.90;;;;;;8414689;28;19928;-74
2022/11/29 01:49:36;;;;;;;;;;;9.00;99.90;;;;;;8412134;28;20348;-74
2022/11/29 01:53:38;;;;;;;;;;;9.10;99.90;;;;;;8400365;28;19939;-74
2022/11/29 01:57:40;;;;;;;;;;;9.10;99.90;;;;;;8410027;28;20215;-74
2022/11/29 02:01:42;;;;;;;;;;;9.10;99.90;;;;;;8397798;28;19924;-74
2022/11/29 02:05:46;;;;;;;;;;;9.10;99.90;;;;;;8412503;28;19924;-74
2022/11/29 02:09:47;;;;;;;;;;;9.10;99.90;;;;;;8418477;28;19974;-74
2022/11/29 02:13:56;;;;;;;;;;;9.10;99.90;;;;;;8417706;28;19928;-74
2022/11/29 02:18:10;;;;;;;;;;;9.10;99.90;;;;;;8402188;28;19975;-74
2022/11/29 02:22:23;;;;;;;;;;;9.10;99.90;;;;;;8412241;28;19946;-74
2022/11/29 02:26:52;;;;;;;;;;;9.00;99.90;;;;;;8421790;28;19934;-74
2022/11/29 02:31:10;;;;;;;;;;;9.00;99.90;;;;;;8424091;28;19935;-74
2022/11/29 02:35:18;;;;;;;;;;;9.00;99.90;;;;;;8412462;28;19924;-75
2022/11/29 02:39:22;;;;;;;;;;;8.90;99.90;;;;;;8417240;28;20014;-74
2022/11/29 02:43:39;;;;;;;;;;;8.90;99.90;;;;;;8424176;28;19924;-73
2022/11/29 02:47:47;;;;;;;;;;;9.00;99.90;;;;;;8415409;28;19925;-74
2022/11/29 02:52:06;;;;;;;;;;;8.90;99.90;;;;;;8421639;28;19935;-74
2022/11/29 02:56:14;;;;;;;;;;;8.90;99.90;;;;;;8397510;28;19924;-74
2022/11/29 03:00:17;;;;;;;;;;;8.90;99.90;;;;;;8395633;28;19959;-74
2022/11/29 03:04:28;;;;;;;;;;;8.90;99.90;;;;;;8396819;28;19967;-74
2022/11/29 03:08:42;;;;;;;;;;;9.00;99.90;;;;;;8410775;28;19924;-74
2022/11/29 03:12:45;;;;;;;;;;;9.00;99.90;;;;;;8410187;28;19928;-74
2022/11/29 03:17:04;;;;;;;;;;;9.00;99.90;;;;;;8416190;28;20006;-74
2022/11/29 03:21:08;;;;;;;;;;;9.00;99.90;;;;;;8417339;28;19936;-74
2022/11/29 03:25:30;;;;;;;;;;;9.00;99.90;;;;;;8413280;28;20379;-75
2022/11/29 03:29:36;;;;;;;;;;;9.00;99.90;;;;;;8418488;28;19931;-75
2022/11/29 03:33:52;;;;;;;;;;;9.00;99.90;;;;;;8408271;28;19932;-74
2022/11/29 03:37:57;;;;;;;;;;;9.00;99.90;;;;;;8401835;28;20419;-74
2022/11/29 03:42:01;;;;;;;;;;;9.00;99.90;;;;;;8423584;28;19928;-74
2022/11/29 03:46:05;;;;;;;;;;;9.00;99.90;;;;;;8419499;28;19953;-74
2022/11/29 03:50:12;;;;;;;;;;;9.00;99.90;;;;;;8406103;28;19924;-74
2022/11/29 03:54:16;;;;;;;;;;;9.00;99.90;;;;;;8387889;28;19928;-74
2022/11/29 03:58:37;;;;;;;;;;;8.90;99.90;;;;;;8419418;28;19971;-73
2022/11/29 04:03:06;;;;;;;;;;;8.90;99.90;;;;;;8418245;28;19927;-74
2022/11/29 04:07:28;;;;;;;;;;;8.90;99.90;;;;;;8411539;28;19935;-74
2022/11/29 04:11:57;;;;;;;;;;;8.90;99.90;;;;;;8394909;28;19932;-73
2022/11/29 04:16:08;;;;;;;;;;;8.90;99.90;;;;;;8428753;28;20417;-74
2022/11/29 04:25:16;;;;;;;;;;;8.80;99.90;;;;;;8417219;28;20367;-74
2022/11/29 04:39:29;;;;;;;;;;;8.80;99.90;;;;;;8415265;28;20004;-74
2022/11/29 04:43:44;;;;;;;;;;;8.80;99.90;;;;;;8421621;28;19963;-74
2022/11/29 04:47:46;;;;;;;;;;;8.80;99.90;;;;;;8417274;28;20383;-74
2022/11/29 04:52:00;;;;;;;;;;;8.80;99.90;;;;;;8424034;28;19978;-74
2022/11/29 04:56:09;;;;;;;;;;;8.80;99.90;;;;;;8413411;28;19928;-74
2022/11/29 05:00:12;;;;;;;;;;;8.80;99.90;;;;;;8414777;28;19928;-74
2022/11/29 05:04:22;;;;;;;;;;;8.70;99.90;;;;;;8423900;28;20647;-74
2022/11/29 05:08:33;;;;;;;;;;;8.70;99.90;;;;;;8417988;28;19979;-74
2022/11/29 05:12:40;;;;;;;;;;;8.80;99.90;;;;;;8425238;28;20065;-74
2022/11/29 05:16:44;;;;;;;;;;;8.70;99.90;;;;;;8415619;28;19975;-74
2022/11/29 05:20:46;;;;;;;;;;;8.80;99.90;;;;;;8399545;28;19932;-74
2022/11/29 05:24:51;;;;;;;;;;;8.80;99.90;;;;;;8410649;28;20376;-73
2022/11/29 05:29:10;;;;;;;;;;;8.80;99.90;;;;;;8402468;28;19931;-74
2022/11/29 05:38:34;;;;;;;;;;;8.80;99.90;;;;;;8415031;28;19926;-74
2022/11/29 05:42:59;;;;;;;;;;;8.80;99.90;;;;;;8419899;28;19925;-74
2022/11/29 05:47:02;;;;;;;;;;;8.80;99.90;;;;;;8386335;28;19956;-74
2022/11/29 05:51:23;;;;;;;;;;;8.80;99.90;;;;;;8421921;28;20000;-74
2022/11/29 05:55:40;;;;;;;;;;;8.80;99.90;;;;;;8410590;28;19924;-74
2022/11/29 05:59:42;;;;;;;;;;;8.80;99.90;;;;;;8409963;28;19931;-74
2022/11/29 06:03:44;;;;;;;;;;;8.80;99.90;;;;;;8398939;28;19928;-74
2022/11/29 06:07:51;;;;;;;;;;;8.80;99.90;;;;;;8415729;28;20286;-74
2022/11/29 06:22:04;;;;;;;;;;;8.70;99.90;;;;;;8431662;28;19925;-73
2022/11/29 06:26:18;;;;;;;;;;;8.70;99.90;;;;;;8423894;28;19924;-74
2022/11/29 06:30:22;;;;;;;;;;;8.70;99.90;;;;;;8421253;28;20333;-74
2022/11/29 06:34:36;;;;;;;;;;;8.60;99.90;;;;;;8416840;28;19928;-74
2022/11/29 06:38:37;;;;;;;;;;;8.70;99.90;;;;;;8418577;28;20313;-74
2022/11/29 06:42:39;;;;;;;;;;;8.70;99.90;;;;;;8417899;28;19968;-74
2022/11/29 06:46:50;;;;;;;;;;;8.70;99.90;;;;;;8411647;28;20394;-74
2022/11/29 06:50:54;;;;;;;;;;;8.60;99.90;;;;;;8425771;28;20330;-74
2022/11/29 06:55:18;;;;;;;;;;;8.60;99.90;;;;;;8392374;28;19924;-74
2022/11/29 06:59:28;;;;;;;;;;;8.60;99.90;;;;;;8415543;28;19939;-74
2022/11/29 07:03:41;;;;;;;;;;;8.60;99.90;;;;;;8420477;28;19928;-74
2022/11/29 07:07:45;;;;;;;;;;;8.60;99.90;;;;;;8404405;28;19971;-74
2022/11/29 07:11:47;;;;;;;;;;;8.60;99.90;;;;;;8408245;28;19932;-74
2022/11/29 07:16:02;;;;;;;;;;;8.60;99.90;;;;;;8417293;28;19930;-74
2022/11/29 07:20:22;;;;;;;;;;;8.60;99.90;;;;;;8403865;28;20052;-74
2022/11/29 07:24:36;;;;;;;;;;;8.50;99.90;;;;;;8421376;28;19924;-74
2022/11/29 07:28:53;;;;;;;;;;;8.50;99.90;;;;;;8414339;28;19924;-74
2022/11/29 07:33:13;;;;;;;;;;;8.50;99.90;;;;;;8423845;28;19923;-74
2022/11/29 07:37:53;;;;;;;;;;;8.50;99.90;;;;;;8399886;28;19924;-74
2022/11/29 07:41:55;;;;;;;;;;;8.50;99.90;;;;;;8314119;28;19932;-75
2022/11/29 07:45:56;;;;;;;;;;;8.40;99.90;;;;;;8370841;28;20282;-75
2022/11/29 07:49:58;;;;;;;;;;;8.50;99.90;;;;;;8400064;28;19932;-75
2022/11/29 07:54:00;;;;;;;;;;;8.50;99.90;;;;;;8423433;28;19931;-75
2022/11/29 07:58:01;;;;;;;;;;;8.50;99.90;;;;;;8417529;28;19924;-75
2022/11/29 08:02:03;;;;;;;;;;;8.50;99.90;;;;;;8423369;28;19955;-75
2022/11/29 08:06:11;;;;;;;;;;;8.50;99.90;;;;;;8440013;28;19931;-75
2022/11/29 08:10:14;;;;;;;;;;;8.50;99.90;;;;;;8429028;28;20454;-75
2022/11/29 08:14:16;;;;;;;;;;;8.50;99.90;;;;;;8408721;28;19971;-75
2022/11/29 08:18:18;;;;;;;;;;;8.50;99.90;;;;;;8425832;28;20038;-75
2022/11/29 08:22:19;;;;;;;;;;;8.50;99.90;;;;;;8428595;28;19924;-75
2022/11/29 08:26:21;;;;;;;;;;;8.50;99.90;;;;;;8426842;28;20034;-75
2022/11/29 08:30:27;;;;;;;;;;;8.50;99.90;;;;;;8430395;28;20004;-75
2022/11/29 08:34:29;;;;;;;;;;;8.50;99.90;;;;;;8415021;28;20006;-75
2022/11/29 08:38:30;;;;;;;;;;;8.50;99.90;;;;;;8428115;28;20057;-75
2022/11/29 08:42:32;;;;;;;;;;;8.50;99.90;;;;;;8429236;28;19924;-75
2022/11/29 08:50:55;;;;;;;;;;;8.60;99.90;;;;;;8421942;28;19928;-75
2022/11/29 08:54:56;;;;;;;;;;;8.60;99.90;;;;;;8423892;28;19924;-75
2022/11/29 08:59:04;;;;;;;;;;;8.60;99.90;;;;;;8402936;28;20002;-75
2022/11/29 09:07:26;;;;;;;;;;;8.60;99.90;;;;;;8423724;28;19935;-75
2022/11/29 09:11:29;;;;;;;;;;;8.60;99.90;;;;;;8429341;28;20796;-75
2022/11/29 09:15:31;;;;;;;;;;;8.70;99.90;;;;;;8428149;28;19924;-76
2022/11/29 09:19:32;;;;;;;;;;;8.70;99.90;;;;;;8424899;28;20350;-75
2022/11/29 09:23:34;;;;;;;;;;;8.70;99.90;;;;;;8436780;28;19928;-75
2022/11/29 09:27:36;;;;;;;;;;;8.80;99.90;;;;;;8405006;28;19924;-75
2022/11/29 09:31:38;;;;;;;;;;;8.70;99.90;;;;;;8428901;28;20724;-75
2022/11/29 09:35:39;;;;;;;;;;;8.80;99.90;;;;;;8430107;28;19924;-75
2022/11/29 09:39:41;;;;;;;;;;;8.70;99.90;;;;;;8431685;28;20315;-75
2022/11/29 09:43:52;;;;;;;;;;;8.80;99.90;;;;;;8429651;28;19924;-75
2022/11/29 09:47:56;;;;;;;;;;;8.80;99.90;;;;;;8429177;28;19928;-75
2022/11/29 09:52:03;;;;;;;;;;;8.90;99.90;;;;;;8416359;28;20356;-75
2022/11/29 09:56:11;;;;;;;;;;;8.90;99.90;;;;;;8419344;28;20265;-75
2022/11/29 10:00:14;;;;;;;;;;;8.90;99.90;;;;;;8417807;28;19924;-75
2022/11/29 10:04:18;;;;;;;;;;;9.00;99.90;;;;;;8406631;28;20367;-75
2022/11/29 10:08:26;;;;;;;;;;;9.00;99.90;;;;;;8427199;28;20041;-75
2022/11/29 10:12:31;;;;;;;;;;;9.10;99.90;;;;;;8431746;28;19924;-75
2022/11/29 10:16:40;;;;;;;;;;;9.10;99.90;;;;;;8405055;28;19959;-75
2022/11/29 10:20:43;;;;;;;;;;;9.10;99.90;;;;;;8423123;28;19928;-75
2022/11/29 10:24:52;;;;;;;;;;;9.10;99.90;;;;;;8425768;28;19947;-76
2022/11/29 10:28:56;;;;;;;;;;;9.10;99.90;;;;;;8423982;28;19931;-75
2022/11/29 10:32:59;;;;;;;;;;;9.10;99.90;;;;;;8424887;28;19932;-75
2022/11/29 10:37:01;;;;;;;;;;;9.20;99.90;;;;;;8409088;28;19979;-75
2022/11/29 10:41:07;;;;;;;;;;;9.20;99.90;;;;;;8430997;28;20634;-75
2022/11/29 10:45:18;;;;;;;;;;;9.30;99.90;;;;;;8423673;28;19963;-75
2022/11/29 10:49:23;;;;;;;;;;;9.30;99.90;;;;;;8405907;28;19924;-75
2022/11/29 10:53:34;;;;;;;;;;;9.40;99.90;;;;;;8425736;28;19929;-75
2022/11/29 10:57:36;;;;;;;;;;;9.40;99.90;;;;;;8403676;28;19924;-75
2022/11/29 11:01:40;;;;;;;;;;;9.40;99.90;;;;;;8388012;28;19931;-75
2022/11/29 11:05:53;;;;;;;;;;;9.40;99.90;;;;;;8403988;28;20435;-75
2022/11/29 11:09:56;;;;;;;;;;;9.40;99.90;;;;;;8402474;28;19928;-75
2022/11/29 11:13:59;;;;;;;;;;;9.40;99.90;;;;;;8403061;28;19925;-75
2022/11/29 11:18:05;;;;;;;;;;;9.40;99.90;;;;;;8403235;28;19993;-75
2022/11/29 11:22:17;;;;;;;;;;;9.50;99.90;;;;;;8403716;28;19971;-75
2022/11/29 11:26:19;;;;;;;;;;;9.50;99.90;;;;;;8405844;28;19928;-75
2022/11/29 11:30:22;;;;;;;;;;;9.50;99.90;;;;;;8389714;28;19939;-75
2022/11/29 11:34:30;;;;;;;;;;;9.50;99.90;;;;;;8402397;28;20375;-75
2022/11/29 11:38:33;;;;;;;;;;;9.60;99.90;;;;;;8388794;28;19997;-75
2022/11/29 11:42:37;;;;;;;;;;;9.60;99.90;;;;;;8393875;28;19930;-75
2022/11/29 11:46:46;;;;;;;;;;;9.60;99.90;;;;;;8395857;28;19974;-75
2022/11/29 11:50:52;;;;;;;;;;;9.60;99.90;;;;;;8377961;28;20107;-75
2022/11/29 11:54:56;;;;;;;;;;;9.70;99.90;;;;;;8393418;28;19951;-75
2022/11/29 11:58:58;;;;;;;;;;;9.70;99.90;;;;;;8374364;28;20019;-75
2022/11/29 12:03:00;;;;;;;;;;;9.70;99.90;;;;;;8395699;28;19925;-75
2022/11/29 12:07:04;;;;;;;;;;;9.70;99.90;;;;;;8403595;28;19994;-75
2022/11/29 12:11:07;;;;;;;;;;;9.70;99.90;;;;;;8389367;28;19924;-75
2022/11/29 12:15:15;;;;;;;;;;;9.80;99.90;;;;;;8396396;28;19932;-75
2022/11/29 12:19:20;;;;;;;;;;;9.90;99.90;;;;;;8394943;28;20403;-75
2022/11/29 12:23:26;;;;;;;;;;;9.90;99.90;;;;;;8396820;28;19959;-75
2022/11/29 12:27:29;;;;;;;;;;;10.00;99.90;;;;;;8403891;28;20295;-75
2022/11/29 12:31:33;;;;;;;;;;;10.00;99.90;;;;;;8397813;28;20375;-75
2022/11/29 12:35:43;;;;;;;;;;;9.90;99.90;;;;;;8402413;28;19985;-75
2022/11/29 12:39:49;;;;;;;;;;;9.90;99.90;;;;;;8397915;28;20040;-75
2022/11/29 12:44:09;;;;;;;;;;;9.90;99.90;;;;;;8403354;28;19966;-75
2022/11/29 12:48:17;;;;;;;;;;;9.90;99.90;;;;;;8400951;28;19928;-76
2022/11/29 12:52:25;;;;;;;;;;;9.90;99.90;;;;;;8404660;28;20288;-75
2022/11/29 12:56:42;;;;;;;;;;;9.90;99.90;;;;;;8384265;28;19924;-75
2022/11/29 13:00:49;;;;;;;;;;;9.90;99.90;;;;;;8403084;28;21299;-75
2022/11/29 13:04:57;;;;;;;;;;;9.90;99.90;;;;;;8395917;28;20355;-75
2022/11/29 13:09:19;;;;;;;;;;;10.00;99.90;;;;;;8404275;28;19924;-75
2022/11/29 13:13:26;;;;;;;;;;;10.00;99.90;;;;;;8404117;28;20027;-75
2022/11/29 13:17:37;;;;;;;;;;;10.10;99.90;;;;;;8403743;28;19924;-75
2022/11/29 13:21:39;;;;;;;;;;;10.10;99.90;;;;;;8404237;28;20280;-75
2022/11/29 13:25:45;;;;;;;;;;;10.10;99.90;;;;;;8408377;28;19924;-75
2022/11/29 13:29:47;;;;;;;;;;;10.10;99.90;;;;;;8387688;28;19932;-75
2022/11/29 13:34:07;;;;;;;;;;;10.10;99.90;;;;;;8403514;28;20031;-75
2022/11/29 13:38:17;;;;;;;;;;;10.00;99.90;;;;;;8401609;28;19928;-75
2022/11/29 13:42:35;;;;;;;;;;;10.00;99.90;;;;;;8404835;28;19932;-75
2022/11/29 13:46:49;;;;;;;;;;;10.00;99.90;;;;;;8406868;28;19925;-75
2022/11/29 13:50:50;;;;;;;;;;;10.00;99.90;;;;;;8403792;28;20087;-75
2022/11/29 13:55:10;;;;;;;;;;;10.00;99.90;;;;;;8404155;28;20303;-75
2022/11/29 13:59:15;;;;;;;;;;;9.90;99.90;;;;;;8388665;28;19932;-75
2022/11/29 14:03:22;;;;;;;;;;;9.90;99.90;;;;;;8404598;28;19924;-75
2022/11/29 14:07:24;;;;;;;;;;;9.90;99.90;;;;;;8405295;28;20402;-75
2022/11/29 14:11:30;;;;;;;;;;;9.90;99.90;;;;;;8400830;28;19928;-75
2022/11/29 14:15:32;;;;;;;;;;;9.90;99.90;;;;;;8400134;28;19932;-75
2022/11/29 14:19:35;;;;;;;;;;;10.00;99.90;;;;;;8396002;28;19935;-75
2022/11/29 14:23:37;;;;;;;;;;;10.00;99.90;;;;;;8390668;28;19932;-75
2022/11/29 14:27:38;;;;;;;;;;;10.00;99.90;;;;;;8399953;28;19928;-75
2022/11/29 14:31:48;;;;;;;;;;;10.00;99.90;;;;;;8383005;28;19924;-75
2022/11/29 14:36:08;;;;;;;;;;;10.00;99.90;;;;;;8400408;28;20024;-75
2022/11/29 14:40:17;;;;;;;;;;;10.00;99.90;;;;;;8393763;28;19959;-75
2022/11/29 14:44:21;;;;;;;;;;;9.90;99.90;;;;;;8405013;28;19928;-75
2022/11/29 14:48:26;;;;;;;;;;;9.90;99.90;;;;;;8404664;28;19924;-75
2022/11/29 14:52:30;;;;;;;;;;;9.90;99.90;;;;;;8401213;28;20022;-75
2022/11/29 14:56:33;;;;;;;;;;;9.90;99.90;;;;;;8399144;28;19932;-75
2022/11/29 15:00:39;;;;;;;;;;;9.90;99.90;;;;;;8404104;28;19971;-75
2022/11/29 15:04:40;;;;;;;;;;;9.90;99.90;;;;;;8393695;28;19929;-75
2022/11/29 15:09:08;;;;;;;;;;;9.90;99.90;;;;;;8400352;28;19981;-75
2022/11/29 15:13:11;;;;;;;;;;;9.80;99.90;;;;;;8396948;28;20007;-75
2022/11/29 15:17:18;;;;;;;;;;;9.80;99.90;;;;;;8393404;28;19934;-75
2022/11/29 15:21:45;;;;;;;;;;;9.70;99.90;;;;;;8395691;28;19928;-75
2022/11/29 15:25:48;;;;;;;;;;;9.60;99.90;;;;;;8398646;28;20368;-75
2022/11/29 15:29:51;;;;;;;;;;;9.50;99.90;;;;;;8393463;28;19979;-75
2022/11/29 15:33:52;;;;;;;;;;;9.50;99.90;;;;;;8394093;28;19948;-75
2022/11/29 15:37:55;;;;;;;;;;;9.40;99.90;;;;;;8394361;28;20015;-75
2022/11/29 15:42:07;;;;;;;;;;;9.40;99.90;;;;;;8392991;28;19935;-75
2022/11/29 15:46:17;;;;;;;;;;;9.30;99.90;;;;;;8389952;28;20027;-76
2022/11/29 15:50:32;;;;;;;;;;;9.30;99.90;;;;;;8393971;28;19924;-75
2022/11/29 15:54:41;;;;;;;;;;;9.20;99.90;;;;;;8395220;28;19932;-75
2022/11/29 15:58:43;;;;;;;;;;;9.20;99.90;;;;;;8395593;28;19935;-75
2022/11/29 16:02:47;;;;;;;;;;;9.20;99.90;;;;;;8378216;28;19975;-75
2022/11/29 16:06:50;;;;;;;;;;;9.10;99.90;;;;;;8403822;28;19928;-75
2022/11/29 16:10:52;;;;;;;;;;;9.00;99.90;;;;;;8402436;28;20014;-75
2022/11/29 16:14:58;;;;;;;;;;;9.00;99.90;;;;;;8398300;28;19935;-75
2022/11/29 16:19:08;;;;;;;;;;;8.80;99.90;;;;;;8400059;28;20037;-75
2022/11/29 16:23:12;;;;;;;;;;;8.80;99.90;;;;;;8405263;28;20368;-75
2022/11/29 16:27:14;;;;;;;;;;;8.70;99.90;;;;;;8409223;28;19932;-75
2022/11/29 16:31:16;;;;;;;;;;;8.70;99.90;;;;;;8399222;28;20019;-75
2022/11/29 16:35:21;;;;;;;;;;;8.80;99.90;;;;;;8400028;28;20357;-75
2022/11/29 16:39:22;;;;;;;;;;;8.80;99.90;;;;;;8404703;28;19974;-75
2022/11/29 16:43:45;;;;;;;;;;;8.80;99.90;;;;;;8396110;28;19968;-75
2022/11/29 16:47:51;;;;;;;;;;;8.90;99.90;;;;;;8398297;28;20283;-75
2022/11/29 16:51:53;;;;;;;;;;;8.90;99.90;;;;;;8399064;28;19940;-75
2022/11/29 16:55:55;;;;;;;;;;;8.90;99.90;;;;;;8395995;28;20023;-75
2022/11/29 16:59:56;;;;;;;;;;;8.90;99.90;;;;;;8397090;28;20431;-75
2022/11/29 17:03:59;;;;;;;;;;;8.90;99.90;;;;;;8396418;28;20038;-75
2022/11/29 17:08:01;;;;;;;;;;;8.90;99.90;;;;;;8396592;28;19928;-75
2022/11/29 17:12:03;;;;;;;;;;;8.90;99.90;;;;;;8391891;28;19953;-75
2022/11/29 17:16:10;;;;;;;;;;;8.90;99.90;;;;;;8396760;28;20011;-75
2022/11/29 17:20:12;;;;;;;;;;;8.90;99.90;;;;;;8396647;28;19978;-75
2022/11/29 17:24:15;;;;;;;;;;;8.90;99.90;;;;;;8377224;28;20398;-75
2022/11/29 17:28:16;;;;;;;;;;;8.90;99.90;;;;;;8390940;28;19942;-75
2022/11/29 17:32:18;;;;;;;;;;;8.90;99.90;;;;;;8388978;28;20027;-75
2022/11/29 17:36:25;;;;;;;;;;;8.90;99.90;;;;;;8391997;28;19942;-75
2022/11/29 17:40:27;;;;;;;;;;;8.90;99.90;;;;;;8391843;28;19938;-76
2022/11/29 17:44:28;;;;;;;;;;;8.80;99.90;;;;;;8386127;28;19928;-75
2022/11/29 17:48:30;;;;;;;;;;;8.70;99.90;;;;;;8395259;28;19982;-75
2022/11/29 17:52:34;;;;;;;;;;;8.70;99.90;;;;;;8369862;28;19929;-75
2022/11/29 17:56:35;;;;;;;;;;;8.60;99.90;;;;;;8396891;28;19928;-75
2022/11/29 18:00:37;;;;;;;;;;;8.60;99.90;;;;;;8396301;28;19966;-75
2022/11/29 18:04:41;;;;;;;;;;;8.50;99.90;;;;;;8396496;28;20422;-75
2022/11/29 18:08:44;;;;;;;;;;;8.50;99.90;;;;;;8399225;28;19928;-75
2022/11/29 18:12:45;;;;;;;;;;;8.40;99.90;;;;;;8397598;28;19928;-75
2022/11/29 18:16:47;;;;;;;;;;;8.40;99.90;;;;;;8378519;28;19997;-75
2022/11/29 18:20:49;;;;;;;;;;;8.40;99.90;;;;;;8397128;28;19935;-75
2022/11/29 18:24:50;;;;;;;;;;;8.40;99.90;;;;;;8394050;28;19939;-75
2022/11/29 18:29:01;;;;;;;;;;;8.40;99.90;;;;;;8396559;28;19924;-75
2022/11/29 18:33:03;;;;;;;;;;;8.40;99.90;;;;;;8394010;28;19936;-75
2022/11/29 18:37:09;;;;;;;;;;;8.30;99.90;;;;;;8380876;28;20318;-75
2022/11/29 18:41:17;;;;;;;;;;;8.30;99.90;;;;;;8396204;28;19982;-75
2022/11/29 18:45:19;;;;;;;;;;;8.30;99.90;;;;;;8390811;28;20280;-75
2022/11/29 18:49:21;;;;;;;;;;;8.30;99.90;;;;;;8393463;28;19970;-75
2022/11/29 18:53:23;;;;;;;;;;;8.30;99.90;;;;;;8394177;28;20043;-75
2022/11/29 18:57:24;;;;;;;;;;;8.30;99.90;;;;;;8394907;28;20015;-75
2022/11/29 19:01:27;;;;;;;;;;;8.30;99.90;;;;;;8394089;28;19942;-75
2022/11/29 19:05:29;;;;;;;;;;;8.30;99.90;;;;;;8390396;28;20338;-75
2022/11/29 19:09:31;;;;;;;;;;;8.30;99.90;;;;;;8378149;28;20348;-75
2022/11/29 19:13:33;;;;;;;;;;;8.30;99.90;;;;;;8392508;28;20582;-75
2022/11/29 19:17:34;;;;;;;;;;;8.30;99.90;;;;;;8386832;28;19960;-75
2022/11/29 19:21:42;;;;;;;;;;;8.30;99.90;;;;;;8386094;28;19974;-75
2022/11/29 19:25:43;;;;;;;;;;;8.30;99.90;;;;;;8380544;28;19955;-75
2022/11/29 19:29:45;;;;;;;;;;;8.30;99.90;;;;;;8380511;28;19971;-75
2022/11/29 19:33:47;;;;;;;;;;;8.30;99.90;;;;;;8392887;28;19960;-75
2022/11/29 19:37:48;;;;;;;;;;;8.20;99.90;;;;;;8394730;28;20011;-75
2022/11/29 19:41:50;;;;;;;;;;;8.20;99.90;;;;;;8393166;28;20331;-75
2022/11/29 19:45:52;;;;;;;;;;;8.20;99.90;;;;;;8387710;28;20710;-75
2022/11/29 19:49:53;;;;;;;;;;;8.20;99.90;;;;;;8388877;28;19935;-75
2022/11/29 19:54:00;;;;;;;;;;;8.20;99.90;;;;;;8386728;28;20283;-75
2022/11/29 19:58:02;;;;;;;;;;;8.20;99.90;;;;;;8380571;28;20345;-75
2022/11/29 20:02:04;;;;;;;;;;;8.20;99.90;;;;;;8395735;28;19935;-75
2022/11/29 20:06:06;;;;;;;;;;;8.20;99.90;;;;;;8409134;28;19932;-75
2022/11/29 20:10:08;;;;;;;;;;;8.10;99.90;;;;;;8410415;28;19935;-75
2022/11/29 20:14:10;;;;;;;;;;;8.10;99.90;;;;;;8393492;28;20027;-75
2022/11/29 20:18:12;;;;;;;;;;;8.20;99.90;;;;;;8399034;28;19967;-75
2022/11/29 20:22:14;;;;;;;;;;;8.20;99.90;;;;;;8396338;28;19946;-75
2022/11/29 20:26:16;;;;;;;;;;;8.10;99.90;;;;;;8389394;28;19939;-74
2022/11/29 20:30:18;;;;;;;;;;;8.20;99.90;;;;;;8394995;28;20075;-75
2022/11/29 20:34:20;;;;;;;;;;;8.20;99.90;;;;;;8376416;28;20019;-75
2022/11/29 20:38:24;;;;;;;;;;;8.10;99.90;;;;;;8390497;28;20022;-75
2022/11/29 20:42:45;;;;;;;;;;;8.20;99.90;;;;;;8392461;28;20027;-75
2022/11/29 20:46:47;;;;;;;;;;;8.20;99.90;;;;;;8377756;28;20078;-75
2022/11/29 20:50:56;;;;;;;;;;;8.20;99.90;;;;;;8384297;28;20408;-75
2022/11/29 20:54:58;;;;;;;;;;;8.20;99.90;;;;;;8402234;28;20275;-75
2022/11/29 21:09:07;;;;;;;;;;;8.20;99.90;;;;;;8374868;28;19939;-75
2022/11/29 21:13:10;;;;;;;;;;;8.10;99.90;;;;;;8398952;28;20332;-75
2022/11/29 21:17:11;;;;;;;;;;;8.10;99.90;;;;;;8379988;28;19934;-75
2022/11/29 21:21:19;;;;;;;;;;;8.10;99.90;;;;;;8401432;28;20812;-75
2022/11/29 21:25:32;;;;;;;;;;;8.10;99.90;;;;;;8394146;28;20334;-75
2022/11/29 21:29:34;;;;;;;;;;;8.10;99.90;;;;;;8393908;28;19928;-75
2022/11/29 21:33:36;;;;;;;;;;;8.10;99.90;;;;;;8398593;28;20019;-75
2022/11/29 21:37:38;;;;;;;;;;;8.10;99.90;;;;;;8394240;28;20243;-75
2022/11/29 21:41:39;;;;;;;;;;;8.20;99.90;;;;;;8401131;28;19935;-75
2022/11/29 21:45:41;;;;;;;;;;;8.20;99.90;;;;;;8400022;28;20314;-75
2022/11/29 21:49:43;;;;;;;;;;;8.10;99.90;;;;;;8395781;28;19924;-75
2022/11/29 21:53:44;;;;;;;;;;;8.10;99.90;;;;;;8398334;28;20011;-75
2022/11/29 21:57:46;;;;;;;;;;;8.20;99.90;;;;;;8394776;28;20403;-75
2022/11/29 22:01:48;;;;;;;;;;;8.20;99.90;;;;;;8386135;28;20018;-75
2022/11/29 22:05:49;;;;;;;;;;;8.10;99.90;;;;;;8425563;28;20375;-75
2022/11/29 22:09:51;;;;;;;;;;;8.10;99.90;;;;;;8433471;28;19963;-75
2022/11/29 22:18:13;;;;;;;;;;;8.10;99.90;;;;;;8418240;28;20321;-75
2022/11/29 22:47:30;;;;;;;;;;;8.10;99.90;;;;;;8428926;28;19919;-75
2022/11/29 22:51:33;;;;;;;;;;;8.10;99.90;;;;;;8430500;28;19932;-75
2022/11/29 22:55:34;;;;;;;;;;;8.10;99.90;;;;;;8418271;28;19933;-75
2022/11/29 22:59:36;;;;;;;;;;;8.20;99.90;;;;;;8426419;28;20254;-75
2022/11/29 23:03:42;;;;;;;;;;;8.20;99.90;;;;;;8412030;28;19978;-75
2022/11/29 23:07:45;;;;;;;;;;;8.20;99.90;;;;;;8426605;28;19927;-75
2022/11/29 23:11:51;;;;;;;;;;;8.20;99.90;;;;;;8431289;28;19924;-75
2022/11/29 23:15:53;;;;;;;;;;;8.20;99.90;;;;;;8431984;28;19964;-75
2022/11/29 23:19:54;;;;;;;;;;;8.20;99.90;;;;;;8418557;28;19947;-75
2022/11/29 23:23:58;;;;;;;;;;;8.20;99.90;;;;;;8428033;28;19955;-75
2022/11/29 23:28:00;;;;;;;;;;;8.20;99.90;;;;;;8405705;28;20014;-75
2022/11/29 23:32:02;;;;;;;;;;;8.20;99.90;;;;;;8412593;28;20382;-75
2022/11/29 23:36:05;;;;;;;;;;;8.20;99.90;;;;;;8420551;28;19928;-75
2022/11/29 23:40:07;;;;;;;;;;;8.20;99.90;;;;;;8429542;28;19931;-75
2022/11/29 23:44:09;;;;;;;;;;;8.20;99.90;;;;;;8424622;28;19930;-75
2022/11/29 23:48:11;;;;;;;;;;;8.20;99.90;;;;;;8436097;28;19970;-75
2022/11/29 23:52:13;;;;;;;;;;;8.20;99.90;;;;;;8406078;28;20333;-75
2022/11/29 23:56:15;;;;;;;;;;;8.20;99.90;;;;;;8406225;28;19928;-75
